createdAt,value
2023-04-08T00:02:59.565Z,8.02
2023-04-08T00:08:01.410Z,8.35
2023-04-08T00:13:03.330Z,8.68
2023-04-08T00:18:05.490Z,8.27
2023-04-08T00:23:07.314Z,7.65
2023-04-08T00:28:09.208Z,8.65
2023-04-08T00:33:11.077Z,8.77
2023-04-08T00:38:13.870Z,9.48
2023-04-08T00:43:16.783Z,8.85
2023-04-08T00:48:18.723Z,7.65
2023-04-08T00:53:20.757Z,8.73
2023-04-08T00:58:23.147Z,7.45
2023-04-08T01:04:01.231Z,8.00
2023-04-08T01:09:05.805Z,7.95
2023-04-08T01:14:10.320Z,8.40
2023-04-08T01:19:29.941Z,8.38
2023-04-08T01:24:36.681Z,8.82
2023-04-08T01:29:39.577Z,8.85
2023-04-08T01:34:42.837Z,8.35
2023-04-08T01:39:45.781Z,8.32
2023-04-08T01:44:48.439Z,8.20
2023-04-08T01:49:53.081Z,8.38
2023-04-08T01:54:54.979Z,8.57
2023-04-08T02:00:00.749Z,8.90
2023-04-08T02:05:02.956Z,7.65
2023-04-08T02:10:05.549Z,8.38
2023-04-08T02:15:09.031Z,8.18
2023-04-08T02:20:16.830Z,7.20
2023-04-08T02:25:23.255Z,7.15
2023-04-08T02:30:27.717Z,6.70
2023-04-08T02:35:29.799Z,6.50
2023-04-08T02:40:33.511Z,6.35
2023-04-08T02:45:41.874Z,5.60
2023-04-08T02:50:44.159Z,5.70
2023-04-08T02:55:46.193Z,6.20
2023-04-08T03:00:48.048Z,5.45
2023-04-08T03:05:49.881Z,5.13
2023-04-08T03:10:51.658Z,4.95
2023-04-08T03:15:53.638Z,5.18
2023-04-08T03:20:55.488Z,4.63
2023-04-08T03:25:57.234Z,4.15
2023-04-08T03:31:00.848Z,3.97
2023-04-08T03:36:02.699Z,3.60
2023-04-08T03:41:04.509Z,3.58
2023-04-08T03:46:06.382Z,3.63
2023-04-08T03:51:08.220Z,3.47
2023-04-08T03:56:10.217Z,2.83
2023-04-08T04:01:12.006Z,3.42
2023-04-08T04:06:13.767Z,3.72
2023-04-08T04:11:15.803Z,4.03
2023-04-08T04:16:17.579Z,3.33
2023-04-08T04:21:19.968Z,2.80
2023-04-08T04:26:21.872Z,3.55
2023-04-08T04:31:28.008Z,3.13
2023-04-08T04:36:29.852Z,3.70
2023-04-08T04:41:31.640Z,5.38
2023-04-08T04:46:33.445Z,4.05
2023-04-08T04:51:35.254Z,4.78
2023-04-08T04:56:37.041Z,7.00
2023-04-08T05:01:41.138Z,7.30
2023-04-08T05:06:43.039Z,7.28
2023-04-08T05:11:44.827Z,6.78
2023-04-08T05:16:46.596Z,5.88
2023-04-08T05:21:48.373Z,6.65
2023-04-08T05:26:53.336Z,8.55
2023-04-08T05:31:56.466Z,7.32
2023-04-08T05:36:58.289Z,8.23
2023-04-08T05:42:00.127Z,7.05
2023-04-08T05:47:02.467Z,6.45
2023-04-08T05:52:04.376Z,9.23
2023-04-08T05:57:06.883Z,5.70
2023-04-08T06:02:09.981Z,8.88
2023-04-08T06:07:11.880Z,8.50
2023-04-08T06:12:13.702Z,4.47
2023-04-08T06:17:15.450Z,5.65
2023-04-08T06:22:17.344Z,6.47
2023-04-08T06:27:19.491Z,6.15
2023-04-08T06:32:22.228Z,5.10
2023-04-08T06:37:24.476Z,10.52
2023-04-08T06:42:26.290Z,5.70
2023-04-08T06:47:40.477Z,6.70
2023-04-08T06:52:42.330Z,13.00
2023-04-08T06:57:44.098Z,9.45
2023-04-08T07:02:46.396Z,6.55
2023-04-08T07:07:48.255Z,9.27
2023-04-08T07:12:51.204Z,7.75
2023-04-08T07:17:53.145Z,8.02
2023-04-08T07:22:54.956Z,8.32
2023-04-08T07:27:57.261Z,8.45
2023-04-08T07:33:00.954Z,8.15
2023-04-08T07:38:03.007Z,8.43
2023-04-08T07:43:04.921Z,8.68
2023-04-08T07:48:07.067Z,8.80
2023-04-08T07:53:10.050Z,9.38
2023-04-08T07:58:12.334Z,9.57
2023-04-08T08:03:14.216Z,8.80
2023-04-08T08:08:16.147Z,9.40
2023-04-08T08:13:21.252Z,8.75
2023-04-08T08:18:23.017Z,8.90
2023-04-08T08:23:24.873Z,8.80
2023-04-08T08:28:26.624Z,7.85
2023-04-08T08:33:28.401Z,7.95
2023-04-08T08:38:30.373Z,7.40
2023-04-08T08:43:35.810Z,8.32
2023-04-08T08:48:38.839Z,7.35
2023-04-08T08:53:45.513Z,6.57
2023-04-08T08:58:48.023Z,7.10
2023-04-08T09:04:10.119Z,7.53
2023-04-08T09:09:12.637Z,9.30
2023-04-08T09:14:25.791Z,6.93
2023-04-08T09:19:27.604Z,7.32
2023-04-08T09:30:16.628Z,7.22
2023-04-08T09:35:19.864Z,7.65
2023-04-08T09:40:22.802Z,7.60
2023-04-08T09:45:28.173Z,7.45
2023-04-08T09:50:32.721Z,7.35
2023-04-08T09:55:37.467Z,8.10
2023-04-08T10:00:50.521Z,8.00
2023-04-08T10:05:53.986Z,7.93
2023-04-08T10:10:56.392Z,8.30
2023-04-08T10:16:19.376Z,9.38
2023-04-08T10:21:34.061Z,9.40
2023-04-08T10:26:37.437Z,9.05
2023-04-08T10:31:40.905Z,10.00
2023-04-08T10:36:42.821Z,8.50
2023-04-08T10:41:48.568Z,10.13
2023-04-08T10:46:52.077Z,9.10
2023-04-08T10:51:53.978Z,8.98
2023-04-08T10:56:55.943Z,8.93
2023-04-08T11:01:58.598Z,9.40
2023-04-08T11:07:00.611Z,8.85
2023-04-08T11:12:03.512Z,8.85
2023-04-08T11:17:06.203Z,7.38
2023-04-08T11:22:10.353Z,8.48
2023-04-08T11:27:12.334Z,8.65
2023-04-08T11:32:14.430Z,9.95
2023-04-08T11:37:16.568Z,11.20
2023-04-08T11:42:32.014Z,9.57
2023-04-08T11:47:34.517Z,11.10
2023-04-08T11:52:47.907Z,10.82
2023-04-08T11:57:50.286Z,11.30
2023-04-08T12:02:53.035Z,11.23
2023-04-08T12:07:55.045Z,11.70
2023-04-08T12:12:57.033Z,12.32
2023-04-08T12:17:58.869Z,13.45
2023-04-08T12:23:00.823Z,11.20
2023-04-08T12:28:02.969Z,13.43
2023-04-08T12:33:04.850Z,12.50
2023-04-08T12:38:06.947Z,13.25
2023-04-08T12:43:08.836Z,14.93
2023-04-08T12:48:11.005Z,14.02
2023-04-08T12:53:12.841Z,15.50
2023-04-08T12:58:16.937Z,15.68
2023-04-08T13:03:19.021Z,16.40
2023-04-08T13:08:20.858Z,15.95
2023-04-08T13:13:22.794Z,17.88
2023-04-08T13:18:24.595Z,12.77
2023-04-08T13:23:26.584Z,12.88
2023-04-08T13:28:28.467Z,13.52
2023-04-08T13:33:30.260Z,12.93
2023-04-08T13:38:32.544Z,11.95
2023-04-08T13:43:34.380Z,12.48
2023-04-08T13:48:36.238Z,12.60
2023-04-08T13:53:38.055Z,11.23
2023-04-08T13:58:39.878Z,10.48
2023-04-08T14:03:41.648Z,10.90
2023-04-08T14:08:43.539Z,10.82
2023-04-08T14:13:45.590Z,11.00
2023-04-08T14:18:47.406Z,11.82
2023-04-08T14:23:49.177Z,10.75
2023-04-08T14:28:51.186Z,11.68
2023-04-08T14:33:53.608Z,9.52
2023-04-08T14:38:56.354Z,9.55
2023-04-08T14:43:58.606Z,10.90
2023-04-08T14:49:01.322Z,11.65
2023-04-08T14:54:03.348Z,12.43
2023-04-08T14:59:06.305Z,13.32
2023-04-08T15:04:08.587Z,12.82
2023-04-08T15:09:10.958Z,10.95
2023-04-08T15:14:13.038Z,11.13
2023-04-08T15:19:15.170Z,11.93
2023-04-08T15:24:17.014Z,11.93
2023-04-08T15:29:23.245Z,13.27
2023-04-08T15:34:25.666Z,13.00
2023-04-08T15:39:27.661Z,11.80
2023-04-08T15:44:33.248Z,12.77
2023-04-08T15:49:35.144Z,11.23
2023-04-08T15:54:38.185Z,12.88
2023-04-08T15:59:40.391Z,14.85
2023-04-08T16:04:43.188Z,14.77
2023-04-08T16:09:45.464Z,16.23
2023-04-08T16:14:47.279Z,15.75
2023-04-08T16:19:51.656Z,15.45
2023-04-08T16:24:53.737Z,15.23
2023-04-08T16:29:57.346Z,14.93
2023-04-08T16:34:59.212Z,16.48
2023-04-08T16:40:01.634Z,15.90
2023-04-08T16:45:04.132Z,14.02
2023-04-08T16:50:08.105Z,13.55
2023-04-08T16:55:11.256Z,14.23
2023-04-08T17:00:14.061Z,14.50
2023-04-08T17:05:16.520Z,13.43
2023-04-08T17:10:19.606Z,13.25
2023-04-08T17:15:21.739Z,13.77
2023-04-08T17:20:26.452Z,13.57
2023-04-08T17:25:28.458Z,14.00
2023-04-08T17:30:30.653Z,14.32
2023-04-08T17:35:32.702Z,13.57
2023-04-08T17:40:34.557Z,13.93
2023-04-08T17:45:36.748Z,14.90
2023-04-08T17:50:38.991Z,14.18
2023-04-08T17:55:41.082Z,15.20
2023-04-08T18:00:42.892Z,13.88
2023-04-08T18:05:44.724Z,14.68
2023-04-08T18:10:46.919Z,14.73
2023-04-08T18:15:49.012Z,15.25
2023-04-08T18:20:51.539Z,14.50
2023-04-08T18:25:54.202Z,14.75
2023-04-08T18:30:57.913Z,14.30
2023-04-08T18:36:09.486Z,14.63
2023-04-08T18:41:11.722Z,15.82
2023-04-08T18:46:13.611Z,14.75
2023-04-08T18:51:19.058Z,15.88
2023-04-08T18:56:24.202Z,16.40
2023-04-08T19:01:26.089Z,15.55
2023-04-08T19:06:28.891Z,16.48
2023-04-08T19:11:30.926Z,16.95
2023-04-08T19:16:34.089Z,15.30
2023-04-08T19:21:37.969Z,16.63
2023-04-08T19:26:40.333Z,17.13
2023-04-08T19:31:42.525Z,15.65
2023-04-08T19:36:44.738Z,16.98
2023-04-08T19:41:47.561Z,15.60
2023-04-08T19:46:49.776Z,16.20
2023-04-08T19:51:52.059Z,15.57
2023-04-08T19:56:53.948Z,15.10
2023-04-08T20:01:56.098Z,17.60
2023-04-08T20:06:58.006Z,23.42
2023-04-08T20:12:06.542Z,18.83
2023-04-08T20:17:08.428Z,19.65
2023-04-08T20:22:10.467Z,19.35
2023-04-08T20:27:12.247Z,17.77
2023-04-08T20:32:14.428Z,17.83
2023-04-08T20:37:18.383Z,17.63
2023-04-08T20:42:21.184Z,16.23
2023-04-08T20:47:23.043Z,16.88
2023-04-08T20:52:24.869Z,17.25
2023-04-08T20:57:27.055Z,17.48
2023-04-08T21:02:28.957Z,16.83
2023-04-08T21:07:31.342Z,17.52
2023-04-08T21:12:33.105Z,16.95
2023-04-08T21:17:35.213Z,16.73
2023-04-08T21:22:37.040Z,18.58
2023-04-08T21:27:40.814Z,16.90
2023-04-08T21:32:42.873Z,17.35
2023-04-08T21:37:44.939Z,16.48
2023-04-08T21:42:47.028Z,17.23
2023-04-08T21:47:50.734Z,16.23
2023-04-08T21:52:52.548Z,15.85
2023-04-08T21:57:54.373Z,16.92
2023-04-08T22:02:56.603Z,16.98
2023-04-08T22:07:58.568Z,17.33
2023-04-08T22:13:00.480Z,17.77
2023-04-08T22:18:02.395Z,17.52
2023-04-08T22:23:04.294Z,18.13
2023-04-08T22:28:06.522Z,16.98
2023-04-08T22:33:08.342Z,16.55
2023-04-08T22:38:10.175Z,16.85
2023-04-08T22:43:12.118Z,17.55
2023-04-08T22:48:14.219Z,17.63
2023-04-08T22:53:16.375Z,18.25
2023-04-08T22:58:18.182Z,20.13
2023-04-08T23:03:20.004Z,17.63
2023-04-08T23:08:21.832Z,19.30
2023-04-08T23:13:23.837Z,19.27
2023-04-08T23:18:26.104Z,18.52
2023-04-08T23:23:27.957Z,18.05
2023-04-08T23:28:29.820Z,17.52
2023-04-08T23:33:31.614Z,17.30
2023-04-08T23:38:33.392Z,16.05
2023-04-08T23:43:36.018Z,16.05
2023-04-08T23:48:37.932Z,16.40
2023-04-08T23:53:40.008Z,15.63
2023-04-08T23:58:41.858Z,16.67
